Gaslog Saratoga — ZCEN3 — position and weather

sailwx.info

Track history (hours):
 
Tides and Currents Weather Stations Pressure Air Temp Water Temp Dewpoint Dewpoint Depression Visibility Wind Speed Wind Dir Waves Ship Positions

Gaslog Saratoga

Last reported at 2018-Jul-01 10:39 UTC. Time now 2018-Jul-16 06:38 UTC.
Position N 01°28' E 103°10'.
Warning: this ship's position is 14 days out of date.

Length 285 m; draft 9.1 m.

Type: Ship (hazmat cat C). MMSI: 310696000.

Date/timePositionNaut miles runAvg speedWind from/ knotsBaromVisibWave heightAir tempDewpointWater temp
2018-Jul-01 10:39N 01°28' E 103°10'413.5
2018-Jul-01 10:22N 01°25' E 103°13'813.3
2018-Jul-01 09:47N 01°20' E 103°18'413.0
2018-Jul-01 09:30N 01°18' E 103°21'612.5
2018-Jul-01 09:00N 01°14' E 103°26'612.8
2018-Jul-01 08:30N 01°12' E 103°32'612.0
2018-Jul-01 08:00N 01°11' E 103°38'612.1
2018-Jul-01 07:30N 01°08' E 103°43'3 6.3
2018-Jul-01 07:00N 01°10' E 103°46'0 0.9
2018-Jul-01 06:30N 01°10' E 103°47'2 3.1
2018-Jul-01 06:00N 01°11' E 103°48'611.7
2018-Jul-01 05:30N 01°13' E 103°53'611.1
2018-Jul-01 05:01N 01°15' E 103°59'4 8.5
2018-Jul-01 04:29N 01°16' E 104°03'5 8.9
2018-Jul-01 03:58N 01°17' E 104°07'4 9.3
2018-Jul-01 03:30N 01°18' E 104°12'5 9.3
2018-Jul-01 02:59N 01°18' E 104°16'510.0
2018-Jul-01 02:28N 01°20' E 104°21'511.1
2018-Jul-01 01:59N 01°24' E 104°25'610.7
2018-Jul-01 01:24N 01°28' E 104°30'  
Track history (hours):
 
Tides and Currents Weather Stations Pressure Air Temp Water Temp Dewpoint Dewpoint Depression Visibility Wind Speed Wind Dir Waves Ship Positions

Gaslog Saratoga

Last reported at 2018-Jul-01 10:39 UTC. Time now 2018-Jul-16 06:38 UTC.
Position N 01°28' E 103°10'.
Warning: this ship's position is 14 days out of date.

Length 285 m; draft 9.1 m.

Type: Ship (hazmat cat C). MMSI: 310696000.

Date/timePositionNaut miles runAvg speedWind from/ knotsBaromVisibWave heightAir tempDewpointWater temp
2018-Jul-01 10:39N 01°28' E 103°10'413.5
2018-Jul-01 10:22N 01°25' E 103°13'813.3
2018-Jul-01 09:47N 01°20' E 103°18'413.0
2018-Jul-01 09:30N 01°18' E 103°21'612.5
2018-Jul-01 09:00N 01°14' E 103°26'612.8
2018-Jul-01 08:30N 01°12' E 103°32'612.0
2018-Jul-01 08:00N 01°11' E 103°38'612.1
2018-Jul-01 07:30N 01°08' E 103°43'3 6.3
2018-Jul-01 07:00N 01°10' E 103°46'0 0.9
2018-Jul-01 06:30N 01°10' E 103°47'2 3.1
2018-Jul-01 06:00N 01°11' E 103°48'611.7
2018-Jul-01 05:30N 01°13' E 103°53'611.1
2018-Jul-01 05:01N 01°15' E 103°59'4 8.5
2018-Jul-01 04:29N 01°16' E 104°03'5 8.9
2018-Jul-01 03:58N 01°17' E 104°07'4 9.3
2018-Jul-01 03:30N 01°18' E 104°12'5 9.3
2018-Jul-01 02:59N 01°18' E 104°16'510.0
2018-Jul-01 02:28N 01°20' E 104°21'511.1
2018-Jul-01 01:59N 01°24' E 104°25'610.7
2018-Jul-01 01:24N 01°28' E 104°30'  

Dump ship's entire track history